createdAt,value
2019-04-07T00:01:18.524Z,7.98
2019-04-07T00:03:49.569Z,8.08
2019-04-07T00:06:21.415Z,8.06
2019-04-07T00:08:54.512Z,7.91
2019-04-07T00:11:25.596Z,7.77
2019-04-07T00:13:58.922Z,7.81
2019-04-07T00:16:30.936Z,7.64
2019-04-07T00:19:03.566Z,7.49
2019-04-07T00:21:34.324Z,7.52
2019-04-07T00:24:05.813Z,7.58
2019-04-07T00:26:36.945Z,7.70
2019-04-07T00:29:08.713Z,7.74
2019-04-07T00:31:41.553Z,7.71
2019-04-07T00:34:12.539Z,7.55
2019-04-07T00:36:43.580Z,7.37
2019-04-07T00:39:14.846Z,7.28
2019-04-07T00:41:47.491Z,7.10
2019-04-07T00:44:19.023Z,6.98
2019-04-07T00:46:51.003Z,6.96
2019-04-07T00:49:22.080Z,7.03
2019-04-07T00:51:53.982Z,7.01
2019-04-07T00:54:25.395Z,6.84
2019-04-07T00:56:56.573Z,6.82
2019-04-07T00:59:27.517Z,6.75
2019-04-07T01:01:58.222Z,6.67
2019-04-07T01:04:29.421Z,6.66
2019-04-07T01:07:00.289Z,6.78
2019-04-07T01:09:32.638Z,7.01
2019-04-07T01:12:04.251Z,7.11
2019-04-07T01:14:35.180Z,7.19
2019-04-07T01:17:06.168Z,7.36
2019-04-07T01:19:39.821Z,7.34
2019-04-07T01:22:13.236Z,7.27
2019-04-07T01:24:44.234Z,7.28
2019-04-07T01:27:15.732Z,7.27
2019-04-07T01:29:49.583Z,7.38
2019-04-07T01:32:20.341Z,7.43
2019-04-07T01:34:51.530Z,7.46
2019-04-07T01:37:22.241Z,7.42
2019-04-07T01:39:53.740Z,7.38
2019-04-07T01:42:32.251Z,7.36
2019-04-07T01:45:21.495Z,7.37
2019-04-07T01:47:54.122Z,7.32
2019-04-07T01:50:27.591Z,7.21
2019-04-07T01:53:05.898Z,7.15
2019-04-07T01:56:01.820Z,6.84
2019-04-07T01:58:43.553Z,6.56
2019-04-07T02:01:18.651Z,6.46
2019-04-07T02:03:57.285Z,6.33
2019-04-07T02:06:45.352Z,6.31
2019-04-07T02:09:18.352Z,6.40
2019-04-07T02:11:53.981Z,6.29
2019-04-07T02:14:53.337Z,6.25
2019-04-07T02:17:32.659Z,6.38
2019-04-07T02:20:20.955Z,6.52
2019-04-07T02:22:55.083Z,6.65
2019-04-07T02:25:39.643Z,6.68
2019-04-07T02:28:20.859Z,6.68
2019-04-07T02:30:59.234Z,6.67
2019-04-07T02:33:43.861Z,6.65
2019-04-07T02:36:25.544Z,6.63
2019-04-07T02:39:07.144Z,6.35
2019-04-07T02:41:46.509Z,6.38
2019-04-07T02:44:22.092Z,6.30
2019-04-07T02:47:03.904Z,6.26
2019-04-07T02:49:36.600Z,6.20
2019-04-07T02:52:09.177Z,6.14
2019-04-07T02:54:43.299Z,6.05
2019-04-07T02:57:19.544Z,6.01
2019-04-07T03:00:01.356Z,5.96
2019-04-07T03:02:47.695Z,5.76
2019-04-07T03:05:33.285Z,5.59
2019-04-07T03:08:06.151Z,5.45
2019-04-07T03:10:38.766Z,5.36
2019-04-07T03:13:11.285Z,5.28
2019-04-07T03:15:46.339Z,5.20
2019-04-07T03:18:34.428Z,5.06
2019-04-07T03:21:11.522Z,4.99
2019-04-07T03:23:44.155Z,4.96
2019-04-07T03:26:32.370Z,4.83
2019-04-07T03:29:08.541Z,4.75
2019-04-07T03:31:43.151Z,4.77
2019-04-07T03:34:26.248Z,4.78
2019-04-07T03:37:18.351Z,4.80
2019-04-07T03:39:38.392Z,4.77
2019-04-07T03:42:10.934Z,4.79
2019-04-07T03:44:43.545Z,4.80
2019-04-07T03:47:18.502Z,5.00
2019-04-07T03:50:00.407Z,5.02
2019-04-07T03:52:35.974Z,4.88
2019-04-07T03:55:13.062Z,4.81
2019-04-07T03:57:57.962Z,4.68
2019-04-07T04:01:08.221Z,4.67
2019-04-07T04:03:57.152Z,4.66
2019-04-07T04:06:32.636Z,4.60
2019-04-07T04:09:11.375Z,4.62
2019-04-07T04:12:01.299Z,4.65
2019-04-07T04:14:53.399Z,4.67
2019-04-07T04:17:25.012Z,4.55
2019-04-07T04:19:55.977Z,4.36
2019-04-07T04:22:28.979Z,4.26
2019-04-07T04:25:00.955Z,4.21
2019-04-07T04:27:33.302Z,4.05
2019-04-07T04:30:06.972Z,3.94
2019-04-07T04:32:37.693Z,3.94
2019-04-07T04:35:10.814Z,3.91
2019-04-07T04:37:48.156Z,3.89
2019-04-07T04:40:14.576Z,3.88
2019-04-07T04:42:45.260Z,3.94
2019-04-07T04:45:15.998Z,4.00
2019-04-07T04:47:46.976Z,3.98
2019-04-07T04:50:18.267Z,4.02
2019-04-07T04:52:49.279Z,4.01
2019-04-07T04:55:20.440Z,4.00
2019-04-07T04:57:51.290Z,4.01
2019-04-07T05:00:22.911Z,4.02
2019-04-07T05:02:53.627Z,4.07
2019-04-07T05:05:24.494Z,4.19
2019-04-07T05:08:00.646Z,4.26
2019-04-07T05:10:27.911Z,4.22
2019-04-07T05:12:58.934Z,4.32
2019-04-07T05:15:29.789Z,4.34
2019-04-07T05:18:00.557Z,4.36
2019-04-07T05:20:32.034Z,4.36
2019-04-07T05:23:05.192Z,4.41
2019-04-07T05:25:36.187Z,4.47
2019-04-07T05:28:07.497Z,4.52
2019-04-07T05:30:39.186Z,4.60
2019-04-07T05:33:09.995Z,4.74
2019-04-07T05:35:40.656Z,4.90
2019-04-07T05:38:11.493Z,5.05
2019-04-07T05:40:42.194Z,5.22
2019-04-07T05:43:13.105Z,5.36
2019-04-07T05:45:45.513Z,5.48
2019-04-07T05:48:19.451Z,5.63
2019-04-07T05:50:48.893Z,5.80
2019-04-07T05:53:19.585Z,6.23
2019-04-07T05:55:53.772Z,6.75
2019-04-07T05:58:23.322Z,7.01
2019-04-07T06:00:54.746Z,7.23
2019-04-07T06:03:25.510Z,7.34
2019-04-07T06:05:56.279Z,7.49
2019-04-07T06:08:35.531Z,7.63
2019-04-07T06:11:02.121Z,7.72
2019-04-07T06:13:32.984Z,7.78
2019-04-07T06:16:04.182Z,7.93
2019-04-07T06:18:35.789Z,8.05
2019-04-07T06:21:08.007Z,8.10
2019-04-07T06:23:39.710Z,8.22
2019-04-07T06:26:11.877Z,8.32
2019-04-07T06:28:43.887Z,8.43
2019-04-07T06:31:16.109Z,8.62
2019-04-07T06:33:47.904Z,8.78
2019-04-07T06:36:20.233Z,8.93
2019-04-07T06:38:52.657Z,9.14
2019-04-07T06:41:27.353Z,9.30
2019-04-07T06:44:09.530Z,9.46
2019-04-07T06:46:30.656Z,9.60
2019-04-07T06:49:04.885Z,9.65
2019-04-07T06:51:46.178Z,9.95
2019-04-07T06:54:37.696Z,9.98
2019-04-07T06:57:26.647Z,10.04
2019-04-07T07:00:02.430Z,10.31
2019-04-07T07:02:51.067Z,10.52
2019-04-07T07:05:26.751Z,10.76
2019-04-07T07:08:21.045Z,13.62
2019-04-07T07:11:10.573Z,15.42
2019-04-07T07:13:45.706Z,16.76
2019-04-07T07:16:35.002Z,16.52
2019-04-07T07:19:08.321Z,16.58
2019-04-07T07:21:57.844Z,17.00
2019-04-07T07:24:29.876Z,18.37
2019-04-07T07:27:02.668Z,18.37
2019-04-07T07:29:33.874Z,20.51
2019-04-07T07:32:06.328Z,21.59
2019-04-07T07:34:39.896Z,21.80
2019-04-07T07:37:10.608Z,19.73
2019-04-07T07:39:43.366Z,18.63
2019-04-07T07:42:14.713Z,19.27
2019-04-07T07:44:46.007Z,18.90
2019-04-07T07:47:19.767Z,18.68
2019-04-07T07:49:49.749Z,19.66
2019-04-07T07:52:21.952Z,19.41
2019-04-07T07:54:53.624Z,19.50
2019-04-07T07:57:24.980Z,19.07
2019-04-07T07:59:56.418Z,18.18
2019-04-07T08:02:29.057Z,18.35
2019-04-07T08:05:00.597Z,19.85
2019-04-07T08:07:31.461Z,20.76
2019-04-07T08:10:03.064Z,19.17
2019-04-07T08:12:34.933Z,18.94
2019-04-07T08:15:08.223Z,21.39
2019-04-07T08:17:39.222Z,22.96
2019-04-07T08:20:11.354Z,22.74
2019-04-07T08:22:44.858Z,23.25
2019-04-07T08:25:20.381Z,22.87
2019-04-07T08:27:52.086Z,20.63
2019-04-07T08:30:23.803Z,20.35
2019-04-07T08:32:57.630Z,23.66
2019-04-07T08:35:30.887Z,24.25
2019-04-07T08:38:01.623Z,25.57
2019-04-07T08:40:32.809Z,23.43
2019-04-07T08:43:03.643Z,21.89
2019-04-07T08:45:35.035Z,24.48
2019-04-07T08:48:06.466Z,24.56
2019-04-07T08:50:38.171Z,21.41
2019-04-07T08:53:13.568Z,20.79
2019-04-07T08:55:44.477Z,22.72
2019-04-07T08:58:25.146Z,22.54
2019-04-07T09:00:53.603Z,20.44
2019-04-07T09:03:25.212Z,19.54
2019-04-07T09:05:58.483Z,20.08
2019-04-07T09:08:30.720Z,20.01
2019-04-07T09:11:06.065Z,19.78
2019-04-07T09:13:37.339Z,19.37
2019-04-07T09:16:14.480Z,19.00
2019-04-07T09:19:04.961Z,18.99
2019-04-07T09:21:48.254Z,19.67
2019-04-07T09:24:38.139Z,18.61
2019-04-07T09:27:16.998Z,19.55
2019-04-07T09:29:58.947Z,20.23
2019-04-07T09:32:44.870Z,21.63
2019-04-07T09:35:34.199Z,22.61
2019-04-07T09:38:26.184Z,22.73
2019-04-07T09:40:58.490Z,19.56
2019-04-07T09:43:48.519Z,20.05
2019-04-07T09:46:21.233Z,21.02
2019-04-07T09:48:55.238Z,19.39
2019-04-07T09:51:28.106Z,20.25
2019-04-07T09:54:20.206Z,20.94
2019-04-07T09:56:51.885Z,22.92
2019-04-07T09:59:40.793Z,22.46
2019-04-07T10:02:34.153Z,22.68
2019-04-07T10:05:11.314Z,24.09
2019-04-07T10:08:03.240Z,24.52
2019-04-07T10:10:52.663Z,26.31
2019-04-07T10:13:40.963Z,25.52
2019-04-07T10:16:20.038Z,21.11
2019-04-07T10:18:56.468Z,20.50
2019-04-07T10:21:30.011Z,21.73
2019-04-07T10:24:20.597Z,23.10
2019-04-07T10:26:58.766Z,24.34
2019-04-07T10:29:37.683Z,24.46
2019-04-07T10:32:15.996Z,25.27
2019-04-07T10:35:04.802Z,22.73
2019-04-07T10:37:55.076Z,21.53
2019-04-07T10:40:31.047Z,20.40
2019-04-07T10:43:19.979Z,21.35
2019-04-07T10:46:09.338Z,21.55
2019-04-07T10:48:42.298Z,20.38
2019-04-07T10:51:21.371Z,19.77
2019-04-07T10:54:08.728Z,20.34
2019-04-07T10:56:57.604Z,21.33
2019-04-07T10:59:34.186Z,21.88
2019-04-07T11:02:10.271Z,21.94
2019-04-07T11:04:44.005Z,22.89
2019-04-07T11:07:32.785Z,22.12
2019-04-07T11:10:15.864Z,21.11
2019-04-07T11:12:53.769Z,21.39
2019-04-07T11:15:27.079Z,22.93
2019-04-07T11:18:00.368Z,21.26
2019-04-07T11:20:48.877Z,20.73
2019-04-07T11:23:28.516Z,20.60
2019-04-07T11:26:00.968Z,20.91
2019-04-07T11:28:51.458Z,20.50
2019-04-07T11:31:25.488Z,20.22
2019-04-07T11:33:58.861Z,20.35
2019-04-07T11:36:34.341Z,20.65
2019-04-07T11:39:29.089Z,20.16
2019-04-07T11:42:10.871Z,19.83
2019-04-07T11:45:01.441Z,19.93
2019-04-07T11:47:34.668Z,19.61
2019-04-07T11:50:11.338Z,19.80
2019-04-07T11:52:47.262Z,20.53
2019-04-07T11:55:21.707Z,21.29
2019-04-07T11:58:11.616Z,20.60
2019-04-07T12:00:39.107Z,20.21
2019-04-07T12:03:28.867Z,20.13
2019-04-07T12:06:07.571Z,20.74
2019-04-07T12:08:55.714Z,23.05
2019-04-07T12:11:30.992Z,23.04
2019-04-07T12:14:20.339Z,21.02
2019-04-07T12:16:55.307Z,19.77
2019-04-07T12:19:28.890Z,20.15
2019-04-07T12:22:13.201Z,20.35
2019-04-07T12:24:59.245Z,21.12
2019-04-07T12:27:33.372Z,20.67
2019-04-07T12:30:08.959Z,21.74
2019-04-07T12:32:41.887Z,21.42
2019-04-07T12:35:19.517Z,21.99
2019-04-07T12:38:04.045Z,23.41
2019-04-07T12:40:44.372Z,22.43
2019-04-07T12:43:30.345Z,20.33
2019-04-07T12:46:19.440Z,19.89
2019-04-07T12:48:55.416Z,19.87
2019-04-07T12:51:31.839Z,20.59
2019-04-07T12:54:08.193Z,19.99
2019-04-07T12:56:42.354Z,20.01
2019-04-07T12:59:16.890Z,20.14
2019-04-07T13:01:51.033Z,19.79
2019-04-07T13:04:28.492Z,19.81
2019-04-07T13:07:03.816Z,19.81
2019-04-07T13:09:53.688Z,19.59
2019-04-07T13:12:38.826Z,20.10
2019-04-07T13:15:30.311Z,19.64
2019-04-07T13:18:08.315Z,19.56
2019-04-07T13:20:50.321Z,19.73
2019-04-07T13:23:22.277Z,20.48
2019-04-07T13:25:56.664Z,20.46
2019-04-07T13:28:32.663Z,21.24
2019-04-07T13:31:18.101Z,19.71
2019-04-07T13:33:51.195Z,20.47
2019-04-07T13:36:25.241Z,20.27
2019-04-07T13:38:57.875Z,19.65
2019-04-07T13:41:43.413Z,19.65
2019-04-07T13:44:14.998Z,20.75
2019-04-07T13:46:59.359Z,20.32
2019-04-07T13:49:33.264Z,19.90
2019-04-07T13:52:07.556Z,19.95
2019-04-07T13:54:49.365Z,19.93
2019-04-07T13:57:27.797Z,20.61
2019-04-07T14:00:20.138Z,20.84
2019-04-07T14:03:13.402Z,20.76
2019-04-07T14:05:46.542Z,19.78
2019-04-07T14:08:25.796Z,19.50
2019-04-07T14:11:02.691Z,19.64
2019-04-07T14:13:40.716Z,19.63
2019-04-07T14:16:19.609Z,19.58
2019-04-07T14:18:58.573Z,19.86
2019-04-07T14:21:46.256Z,20.11
2019-04-07T14:24:27.890Z,19.87
2019-04-07T14:27:09.847Z,19.35
2019-04-07T14:29:49.993Z,19.35
2019-04-07T14:32:23.157Z,19.34
2019-04-07T14:35:03.066Z,20.13
2019-04-07T14:37:37.197Z,20.28
2019-04-07T14:40:20.414Z,21.09
2019-04-07T14:43:09.622Z,21.74
2019-04-07T14:45:49.273Z,22.02
2019-04-07T14:48:25.362Z,21.35
2019-04-07T14:51:06.741Z,20.82
2019-04-07T14:53:39.207Z,20.52
2019-04-07T14:56:14.389Z,20.98
2019-04-07T14:58:53.780Z,21.78
2019-04-07T15:01:25.713Z,21.46
2019-04-07T15:03:56.720Z,21.19
2019-04-07T15:06:31.149Z,20.45
2019-04-07T15:09:17.628Z,19.76
2019-04-07T15:11:51.192Z,19.85
2019-04-07T15:14:23.285Z,19.90
2019-04-07T15:16:54.684Z,20.32
2019-04-07T15:19:25.444Z,19.99
2019-04-07T15:21:58.226Z,19.46
2019-04-07T15:24:35.320Z,19.28
2019-04-07T15:27:05.910Z,19.13
2019-04-07T15:29:41.372Z,19.12
2019-04-07T15:32:10.547Z,19.15
2019-04-07T15:34:42.538Z,18.85
2019-04-07T15:37:15.410Z,18.87
2019-04-07T15:39:47.971Z,18.95
2019-04-07T15:42:33.094Z,18.95
2019-04-07T15:44:54.007Z,19.05
2019-04-07T15:47:26.571Z,19.88
2019-04-07T15:49:58.140Z,20.45
2019-04-07T15:52:31.640Z,20.71
2019-04-07T15:55:06.279Z,20.73
2019-04-07T15:57:37.245Z,19.39
2019-04-07T16:00:08.667Z,19.39
2019-04-07T16:02:42.216Z,19.11
2019-04-07T16:05:14.784Z,19.60
2019-04-07T16:07:46.718Z,19.58
2019-04-07T16:10:21.289Z,19.01
2019-04-07T16:12:52.776Z,18.85
2019-04-07T16:15:23.659Z,18.80
2019-04-07T16:17:56.793Z,18.64
2019-04-07T16:20:32.463Z,18.50
2019-04-07T16:23:00.880Z,18.53
2019-04-07T16:25:32.378Z,18.60
2019-04-07T16:28:03.762Z,18.44
2019-04-07T16:30:34.886Z,18.27
2019-04-07T16:33:06.195Z,18.16
2019-04-07T16:35:38.344Z,18.22
2019-04-07T16:38:10.947Z,18.13
2019-04-07T16:40:42.417Z,18.10
2019-04-07T16:43:17.348Z,18.05
2019-04-07T16:45:47.163Z,17.88
2019-04-07T16:48:19.688Z,17.68
2019-04-07T16:50:54.747Z,17.70
2019-04-07T16:53:23.701Z,17.64
2019-04-07T16:55:55.931Z,17.56
2019-04-07T16:58:27.611Z,17.54
2019-04-07T17:00:59.008Z,17.53
2019-04-07T17:03:31.036Z,17.47
2019-04-07T17:06:05.299Z,17.38
2019-04-07T17:08:39.127Z,17.32
2019-04-07T17:11:10.891Z,17.31
2019-04-07T17:13:42.972Z,17.25
2019-04-07T17:16:14.660Z,17.13
2019-04-07T17:18:47.900Z,17.13
2019-04-07T17:21:22.428Z,16.96
2019-04-07T17:23:55.750Z,16.83
2019-04-07T17:26:27.690Z,16.73
2019-04-07T17:28:59.723Z,16.18
2019-04-07T17:31:33.609Z,15.68
2019-04-07T17:34:09.823Z,15.42
2019-04-07T17:36:40.939Z,15.11
2019-04-07T17:39:26.118Z,14.86
2019-04-07T17:41:59.446Z,14.35
2019-04-07T17:44:33.968Z,14.35
2019-04-07T17:47:13.660Z,14.36
2019-04-07T17:49:50.417Z,14.28
2019-04-07T17:52:29.102Z,14.15
2019-04-07T17:55:14.046Z,14.00
2019-04-07T17:57:49.537Z,13.88
2019-04-07T18:00:40.928Z,13.75
2019-04-07T18:03:17.785Z,13.54
2019-04-07T18:05:59.286Z,13.35
2019-04-07T18:08:41.811Z,13.39
2019-04-07T18:11:18.833Z,13.38
2019-04-07T18:13:57.591Z,13.31
2019-04-07T18:16:29.177Z,13.14
2019-04-07T18:19:05.361Z,13.09
2019-04-07T18:21:44.834Z,13.09
2019-04-07T18:24:22.735Z,12.87
2019-04-07T18:26:55.631Z,12.73
2019-04-07T18:29:30.982Z,12.89
2019-04-07T18:32:07.546Z,13.14
2019-04-07T18:34:58.439Z,13.17
2019-04-07T18:37:48.481Z,13.01
2019-04-07T18:40:29.521Z,12.94
2019-04-07T18:43:20.221Z,12.46
2019-04-07T18:46:11.909Z,12.23
2019-04-07T18:48:49.074Z,12.19
2019-04-07T18:51:34.192Z,11.98
2019-04-07T18:54:26.912Z,11.62
2019-04-07T18:57:14.070Z,11.43
2019-04-07T19:00:04.216Z,11.37
2019-04-07T19:02:46.409Z,11.32
2019-04-07T19:05:22.242Z,11.40
2019-04-07T19:08:11.738Z,10.91
2019-04-07T19:11:10.302Z,10.80
2019-04-07T19:13:44.962Z,10.83
2019-04-07T19:16:22.045Z,10.70
2019-04-07T19:19:10.651Z,10.50
2019-04-07T19:21:47.123Z,10.45
2019-04-07T19:24:22.737Z,10.50
2019-04-07T19:27:10.493Z,10.36
2019-04-07T19:29:39.150Z,10.51
2019-04-07T19:32:14.685Z,10.37
2019-04-07T19:34:49.256Z,10.25
2019-04-07T19:37:42.350Z,10.02
2019-04-07T19:40:16.708Z,9.93
2019-04-07T19:43:10.715Z,9.61
2019-04-07T19:45:47.265Z,9.35
2019-04-07T19:48:21.024Z,9.38
2019-04-07T19:51:03.705Z,9.31
2019-04-07T19:53:43.237Z,9.26
2019-04-07T19:56:31.452Z,9.24
2019-04-07T19:59:13.962Z,9.29
2019-04-07T20:01:49.129Z,9.26
2019-04-07T20:04:44.153Z,9.27
2019-04-07T20:07:31.641Z,9.33
2019-04-07T20:10:19.957Z,9.37
2019-04-07T20:12:59.048Z,8.79
2019-04-07T20:15:49.606Z,9.01
2019-04-07T20:18:28.291Z,8.82
2019-04-07T20:21:21.273Z,8.58
2019-04-07T20:24:07.029Z,8.66
2019-04-07T20:26:56.749Z,8.45
2019-04-07T20:29:31.707Z,8.58
2019-04-07T20:32:11.082Z,8.52
2019-04-07T20:34:45.047Z,8.31
2019-04-07T20:37:35.043Z,8.24
2019-04-07T20:40:19.332Z,8.04
2019-04-07T20:42:58.283Z,8.14
2019-04-07T20:45:50.048Z,8.17
2019-04-07T20:48:25.754Z,8.33
2019-04-07T20:51:17.690Z,8.18
2019-04-07T20:53:51.520Z,8.05
2019-04-07T20:56:36.343Z,7.67
2019-04-07T20:59:26.936Z,7.42
2019-04-07T21:02:08.642Z,7.49
2019-04-07T21:04:52.116Z,7.65
2019-04-07T21:07:28.336Z,7.78
2019-04-07T21:10:06.544Z,7.75
2019-04-07T21:12:52.693Z,7.55
2019-04-07T21:15:31.508Z,7.22
2019-04-07T21:18:18.745Z,7.01
2019-04-07T21:21:04.525Z,7.07
2019-04-07T21:23:52.966Z,6.76
2019-04-07T21:26:27.788Z,6.40
2019-04-07T21:29:08.159Z,6.14
2019-04-07T21:31:39.815Z,6.18
2019-04-07T21:34:12.378Z,6.28
2019-04-07T21:36:57.231Z,6.32
2019-04-07T21:39:31.823Z,6.30
2019-04-07T21:42:19.937Z,6.37
2019-04-07T21:45:07.746Z,6.36
2019-04-07T21:47:41.812Z,6.35
2019-04-07T21:50:24.586Z,6.47
2019-04-07T21:53:03.141Z,6.43
2019-04-07T21:55:52.086Z,6.42
2019-04-07T21:58:40.708Z,6.23
2019-04-07T22:01:16.662Z,6.18
2019-04-07T22:03:49.750Z,6.17
2019-04-07T22:06:37.411Z,6.10
2019-04-07T22:09:20.561Z,6.05
2019-04-07T22:11:53.674Z,6.01
2019-04-07T22:14:24.523Z,5.90
2019-04-07T22:16:55.230Z,5.80
2019-04-07T22:19:26.122Z,5.76
2019-04-07T22:21:57.013Z,5.93
2019-04-07T22:24:32.166Z,5.86
2019-04-07T22:27:04.289Z,5.81
2019-04-07T22:29:34.937Z,5.72
2019-04-07T22:32:07.431Z,5.52
2019-04-07T22:34:38.388Z,5.51
2019-04-07T22:37:10.106Z,5.27
2019-04-07T22:39:41.775Z,5.07
2019-04-07T22:42:15.256Z,4.82
2019-04-07T22:44:46.220Z,4.92
2019-04-07T22:47:19.702Z,5.11
2019-04-07T22:49:50.964Z,4.98
2019-04-07T22:52:22.571Z,4.72
2019-04-07T22:54:54.567Z,4.81
2019-04-07T22:57:26.007Z,4.81
2019-04-07T22:59:56.970Z,4.89
2019-04-07T23:02:27.967Z,4.85
2019-04-07T23:04:58.807Z,4.95
2019-04-07T23:07:29.994Z,4.94
2019-04-07T23:10:01.233Z,4.90
2019-04-07T23:12:34.083Z,4.76
2019-04-07T23:15:06.954Z,4.60
2019-04-07T23:17:37.744Z,4.56
2019-04-07T23:20:09.989Z,4.48
2019-04-07T23:22:42.343Z,4.44
2019-04-07T23:25:13.378Z,4.38
2019-04-07T23:27:44.302Z,4.55
2019-04-07T23:30:17.328Z,4.54
2019-04-07T23:32:48.470Z,4.71
2019-04-07T23:35:20.114Z,4.62
2019-04-07T23:37:52.146Z,4.46
2019-04-07T23:40:23.744Z,4.42
2019-04-07T23:42:55.357Z,4.34
2019-04-07T23:45:26.089Z,4.21
2019-04-07T23:47:56.959Z,4.06
2019-04-07T23:50:27.915Z,3.94
2019-04-07T23:53:01.591Z,3.74
2019-04-07T23:55:32.279Z,3.82
2019-04-07T23:58:03.051Z,3.80
